Time;durP1;ratioP1;P1;durP2;ratioP2;P2;SDS_P1;SDS_P2;PMS_P1;PMS_P2;Temp;Humidity;BMP_temperature;BMP_pressure;BME280_temperature;BME280_humidity;BME280_pressure;Samples;Min_cycle;Max_cycle;Signal;HPM_P1;HPM_P2
2023/10/13 00:01:39;;;;;;;12.13;11.13;;;;;;;;;;5014235;28;20890;-79
2023/10/13 00:04:25;;;;;;;14.00;12.60;;;;;;;;;;5013275;28;20796;-80
2023/10/13 00:07:11;;;;;;;12.37;11.10;;;;;;;;;;5013153;28;20797;-79
2023/10/13 00:09:57;;;;;;;13.07;11.63;;;;;;;;;;5013782;28;20917;-79
2023/10/13 00:12:49;;;;;;;13.37;12.07;;;;;;;;;;4992029;28;20786;-80
2023/10/13 00:15:38;;;;;;;14.63;12.30;;;;;;;;;;5012626;28;20960;-80
2023/10/13 00:18:26;;;;;;;13.00;11.53;;;;;;;;;;4992937;28;21015;-79
2023/10/13 00:21:15;;;;;;;14.03;12.73;;;;;;;;;;5012865;28;20804;-80
2023/10/13 00:24:05;;;;;;;14.10;12.70;;;;;;;;;;5009976;28;20439;-79
2023/10/13 00:26:53;;;;;;;15.70;12.50;;;;;;;;;;5005792;28;20808;-79
2023/10/13 00:29:40;;;;;;;14.33;11.17;;;;;;;;;;5013137;28;20801;-79
2023/10/13 00:32:27;;;;;;;13.23;11.93;;;;;;;;;;4993033;28;20860;-79
2023/10/13 00:35:24;;;;;;;13.37;12.13;;;;;;;;;;5002568;28;20835;-80
2023/10/13 00:38:13;;;;;;;12.87;11.67;;;;;;;;;;4999046;28;20861;-80
2023/10/13 00:41:04;;;;;;;13.43;12.13;;;;;;;;;;5009303;28;20796;-79
2023/10/13 00:46:54;;;;;;;14.73;12.50;;;;;;;;;;5013124;28;20793;-79
2023/10/13 00:49:39;;;;;;;15.13;13.53;;;;;;;;;;5009512;28;20435;-79
2023/10/13 00:52:25;;;;;;;16.30;12.80;;;;;;;;;;5016763;28;20758;-79
2023/10/13 00:55:11;;;;;;;15.13;13.73;;;;;;;;;;4989067;28;20788;-79
2023/10/13 00:57:57;;;;;;;15.13;13.73;;;;;;;;;;5003229;28;20830;-79
2023/10/13 01:00:47;;;;;;;15.57;13.97;;;;;;;;;;5009635;28;20804;-80
2023/10/13 01:03:33;;;;;;;14.57;13.27;;;;;;;;;;5029209;28;20418;-81
2023/10/13 01:06:19;;;;;;;14.10;12.40;;;;;;;;;;5028558;28;20668;-80
2023/10/13 01:09:12;;;;;;;14.10;12.90;;;;;;;;;;5016698;28;22254;-80
2023/10/13 01:12:00;;;;;;;14.60;13.30;;;;;;;;;;5002760;28;20883;-80
2023/10/13 01:14:46;;;;;;;14.07;12.67;;;;;;;;;;5012483;28;20824;-79
2023/10/13 01:17:31;;;;;;;16.17;12.70;;;;;;;;;;5004114;28;20438;-80
2023/10/13 01:20:24;;;;;;;14.30;12.90;;;;;;;;;;5002331;28;20849;-80
2023/10/13 01:23:18;;;;;;;15.83;14.30;;;;;;;;;;5010198;28;20911;-80
2023/10/13 01:26:05;;;;;;;19.37;12.77;;;;;;;;;;5017115;28;20462;-79
2023/10/13 01:28:50;;;;;;;14.27;13.03;;;;;;;;;;5011197;28;20927;-79
2023/10/13 01:31:37;;;;;;;13.40;12.10;;;;;;;;;;5002342;28;21037;-82
2023/10/13 01:34:22;;;;;;;15.80;14.20;;;;;;;;;;5013971;28;20816;-80
2023/10/13 01:37:10;;;;;;;16.83;13.07;;;;;;;;;;5004626;28;20790;-78
2023/10/13 01:39:57;;;;;;;13.53;12.27;;;;;;;;;;5014966;28;20873;-79
2023/10/13 01:42:45;;;;;;;13.40;12.27;;;;;;;;;;5007097;28;21099;-79
2023/10/13 01:45:30;;;;;;;13.93;12.53;;;;;;;;;;5013951;28;20927;-80
2023/10/13 01:48:16;;;;;;;14.90;13.60;;;;;;;;;;4985237;28;20785;-79
2023/10/13 01:51:05;;;;;;;15.57;13.97;;;;;;;;;;4998800;28;21002;-80
2023/10/13 01:53:56;;;;;;;13.80;12.50;;;;;;;;;;5013391;28;20817;-79
2023/10/13 01:56:43;;;;;;;14.13;12.70;;;;;;;;;;4992297;28;20876;-80
2023/10/13 01:59:30;;;;;;;15.00;13.60;;;;;;;;;;4997538;28;21083;-80
2023/10/13 02:02:15;;;;;;;15.30;13.80;;;;;;;;;;4991995;28;20880;-80
2023/10/13 02:05:02;;;;;;;14.60;13.20;;;;;;;;;;5000122;28;20443;-80
2023/10/13 02:07:46;;;;;;;13.00;11.80;;;;;;;;;;5011894;28;20828;-81
2023/10/13 02:10:31;;;;;;;15.07;13.60;;;;;;;;;;5017990;28;20812;-79
2023/10/13 02:13:19;;;;;;;14.70;13.20;;;;;;;;;;5017146;28;20796;-80
2023/10/13 02:16:05;;;;;;;14.13;12.70;;;;;;;;;;5002783;28;20868;-80
2023/10/13 02:18:52;;;;;;;14.33;12.90;;;;;;;;;;5018144;28;20475;-81
2023/10/13 02:21:39;;;;;;;16.20;13.83;;;;;;;;;;4995315;28;20820;-80
2023/10/13 02:24:29;;;;;;;14.37;13.07;;;;;;;;;;5002340;28;20893;-81
2023/10/13 02:27:14;;;;;;;15.30;13.70;;;;;;;;;;5001779;28;20529;-81
2023/10/13 02:30:00;;;;;;;14.90;13.37;;;;;;;;;;5001307;28;20805;-80
2023/10/13 02:32:46;;;;;;;14.77;13.57;;;;;;;;;;5015932;28;20826;-80
2023/10/13 02:35:30;;;;;;;15.87;14.33;;;;;;;;;;5016165;28;20809;-81
2023/10/13 02:38:25;;;;;;;16.23;14.70;;;;;;;;;;5016783;28;20900;-81
2023/10/13 02:41:11;;;;;;;15.23;13.67;;;;;;;;;;4995143;28;20775;-81
2023/10/13 02:43:56;;;;;;;15.07;13.73;;;;;;;;;;5002332;28;20430;-80
2023/10/13 02:46:44;;;;;;;15.90;14.20;;;;;;;;;;5010130;28;20961;-80
2023/10/13 02:49:31;;;;;;;14.97;13.50;;;;;;;;;;5001655;28;20863;-81
2023/10/13 02:52:18;;;;;;;18.53;13.13;;;;;;;;;;5001026;28;20441;-81
2023/10/13 02:55:08;;;;;;;17.07;12.60;;;;;;;;;;5000813;28;20848;-81
2023/10/13 02:57:56;;;;;;;14.53;13.23;;;;;;;;;;5001684;28;20872;-80
2023/10/13 03:00:41;;;;;;;13.63;12.27;;;;;;;;;;4994369;28;20774;-79
2023/10/13 03:03:29;;;;;;;14.27;12.87;;;;;;;;;;5001659;28;20777;-80
2023/10/13 03:06:14;;;;;;;14.37;12.87;;;;;;;;;;5016377;28;20822;-81
2023/10/13 03:09:14;;;;;;;14.27;12.87;;;;;;;;;;5015765;28;20459;-81
2023/10/13 03:11:58;;;;;;;14.90;13.60;;;;;;;;;;5000107;28;21186;-80
2023/10/13 03:14:47;;;;;;;16.27;13.27;;;;;;;;;;5000197;28;20952;-80
2023/10/13 03:17:34;;;;;;;15.27;13.77;;;;;;;;;;5015301;28;20825;-80
2023/10/13 03:20:22;;;;;;;15.13;13.17;;;;;;;;;;4995357;28;20471;-79
2023/10/13 03:23:09;;;;;;;15.10;13.57;;;;;;;;;;5015857;28;20800;-79
2023/10/13 03:25:56;;;;;;;14.40;13.00;;;;;;;;;;5000620;28;20915;-80
2023/10/13 03:28:41;;;;;;;16.93;14.10;;;;;;;;;;4993115;28;20908;-80
2023/10/13 03:31:28;;;;;;;15.43;13.90;;;;;;;;;;5000961;28;20817;-80
2023/10/13 03:34:13;;;;;;;16.30;14.60;;;;;;;;;;5008593;28;20838;-80
2023/10/13 03:36:59;;;;;;;17.80;15.80;;;;;;;;;;5015516;28;20837;-80
2023/10/13 03:39:45;;;;;;;16.10;14.57;;;;;;;;;;5009077;28;20877;-79
2023/10/13 03:42:32;;;;;;;16.53;14.83;;;;;;;;;;5014960;28;20435;-79
2023/10/13 03:45:18;;;;;;;15.30;13.80;;;;;;;;;;5015058;28;20766;-81
2023/10/13 03:48:08;;;;;;;16.53;13.80;;;;;;;;;;5015036;28;20837;-79
2023/10/13 03:51:02;;;;;;;16.23;14.50;;;;;;;;;;5014514;28;20844;-80
2023/10/13 03:53:53;;;;;;;16.70;15.03;;;;;;;;;;5014957;28;20864;-81
2023/10/13 03:56:41;;;;;;;16.07;14.73;;;;;;;;;;5014255;28;20924;-80
2023/10/13 03:59:35;;;;;;;15.00;13.50;;;;;;;;;;5014683;28;20880;-80
2023/10/13 04:02:21;;;;;;;15.37;13.73;;;;;;;;;;5014779;28;20442;-79
2023/10/13 04:05:09;;;;;;;18.17;14.83;;;;;;;;;;5014459;28;20893;-81
2023/10/13 04:14:23;;;;;;;14.70;13.13;;;;;;;;;;4957174;28;20932;-80
2023/10/13 04:17:14;;;;;;;16.50;14.90;;;;;;;;;;5017679;28;20862;-80
2023/10/13 04:26:09;;;;;;;15.70;14.20;;;;;;;;;;5011368;28;20854;-79
2023/10/13 04:28:55;;;;;;;15.33;13.83;;;;;;;;;;5017648;28;20920;-80
2023/10/13 04:34:45;;;;;;;17.00;15.20;;;;;;;;;;5009144;28;20796;-80
2023/10/13 04:37:33;;;;;;;15.40;13.90;;;;;;;;;;5017552;28;20792;-79
2023/10/13 04:40:19;;;;;;;19.47;14.70;;;;;;;;;;4999028;28;20507;-80
2023/10/13 04:43:32;;;;;;;17.77;14.70;;;;;;;;;;4999330;28;20424;-79
2023/10/13 04:46:25;;;;;;;16.20;14.80;;;;;;;;;;4997839;28;20801;-79
2023/10/13 04:49:27;;;;;;;17.27;15.73;;;;;;;;;;5012244;28;20863;-78
2023/10/13 04:52:13;;;;;;;23.67;15.57;;;;;;;;;;5015915;28;20805;-78
2023/10/13 04:55:09;;;;;;;17.27;14.00;;;;;;;;;;5018368;28;20785;-79
2023/10/13 04:58:10;;;;;;;16.27;14.67;;;;;;;;;;4998643;28;20514;-80
2023/10/13 05:01:39;;;;;;;17.60;14.93;;;;;;;;;;4998926;28;20798;-80
2023/10/13 05:04:38;;;;;;;24.10;15.10;;;;;;;;;;4998238;28;20934;-79
2023/10/13 05:47:22;;;;;;;20.10;15.30;;;;;;;;;;4994544;28;20805;-79
2023/10/13 05:50:13;;;;;;;18.33;15.57;;;;;;;;;;4983200;28;20424;-80
2023/10/13 06:29:53;;;;;;;16.60;14.90;;;;;;;;;;5013753;28;20803;-78
2023/10/13 06:32:39;;;;;;;23.83;15.53;;;;;;;;;;5007120;28;20805;-79
2023/10/13 06:35:26;;;;;;;15.90;14.20;;;;;;;;;;5014821;28;20852;-79
2023/10/13 06:38:20;;;;;;;20.17;15.33;;;;;;;;;;5000010;28;20794;-79
2023/10/13 06:41:06;;;;;;;16.53;13.53;;;;;;;;;;5013028;28;20770;-78
2023/10/13 06:44:00;;;;;;;18.27;16.23;;;;;;;;;;5013918;28;20486;-80
2023/10/13 06:46:45;;;;;;;15.80;14.17;;;;;;;;;;5009995;28;20813;-81
2023/10/13 06:49:32;;;;;;;16.60;13.77;;;;;;;;;;5016884;28;20855;-81
2023/10/13 06:52:19;;;;;;;14.80;12.70;;;;;;;;;;5017665;28;20817;-80
2023/10/13 06:55:05;;;;;;;18.17;13.80;;;;;;;;;;5014938;28;20856;-79
2023/10/13 06:57:51;;;;;;;13.67;12.37;;;;;;;;;;4996674;28;20793;-79
2023/10/13 07:00:38;;;;;;;14.67;13.03;;;;;;;;;;5014481;28;20872;-77
2023/10/13 07:03:23;;;;;;;14.23;12.83;;;;;;;;;;5013437;28;20809;-80
2023/10/13 07:06:11;;;;;;;17.57;13.20;;;;;;;;;;5007913;28;20435;-79
2023/10/13 07:08:58;;;;;;;15.67;12.90;;;;;;;;;;5013343;28;20833;-79
2023/10/13 07:11:43;;;;;;;13.57;12.27;;;;;;;;;;5013471;28;20911;-79
2023/10/13 07:14:28;;;;;;;14.40;12.00;;;;;;;;;;5013538;28;20789;-80
2023/10/13 07:17:16;;;;;;;13.73;11.70;;;;;;;;;;5014809;28;20782;-78
2023/10/13 07:20:14;;;;;;;18.10;11.70;;;;;;;;;;5013307;28;20864;-80
2023/10/13 07:23:03;;;;;;;14.40;10.80;;;;;;;;;;5014609;28;20800;-78
2023/10/13 07:26:02;;;;;;;12.90;10.30;;;;;;;;;;5007476;28;21025;-79
2023/10/13 07:28:47;;;;;;;12.83;10.40;;;;;;;;;;5013378;28;20551;-82
2023/10/13 07:31:33;;;;;;;15.10;11.83;;;;;;;;;;5014580;28;20960;-82
2023/10/13 07:34:24;;;;;;;13.00;10.77;;;;;;;;;;5014196;28;20477;-83
2023/10/13 07:37:12;;;;;;;14.80;10.17;;;;;;;;;;5014467;28;20828;-82
2023/10/13 07:39:59;;;;;;;16.50;10.77;;;;;;;;;;5013855;28;20478;-81
2023/10/13 07:42:46;;;;;;;15.80;12.37;;;;;;;;;;5013317;28;20805;-82
2023/10/13 07:45:35;;;;;;;13.80;11.33;;;;;;;;;;5006065;28;20785;-82
2023/10/13 07:48:21;;;;;;;18.23;10.80;;;;;;;;;;5011225;28;20876;-82
2023/10/13 07:51:11;;;;;;;12.43;10.40;;;;;;;;;;4990703;28;20430;-81
2023/10/13 07:53:56;;;;;;;14.83;12.70;;;;;;;;;;5012707;28;20813;-82
2023/10/13 07:56:41;;;;;;;15.87;10.80;;;;;;;;;;4995903;28;20804;-82
2023/10/13 07:59:28;;;;;;;16.73;9.77;;;;;;;;;;5000077;28;20806;-81
2023/10/13 08:02:33;;;;;;;16.73;9.73;;;;;;;;;;5010837;28;20430;-82
2023/10/13 08:05:25;;;;;;;17.73;10.17;;;;;;;;;;5017511;28;20439;-83
2023/10/13 08:08:14;;;;;;;13.23;10.00;;;;;;;;;;5016011;28;20931;-82
2023/10/13 08:11:08;;;;;;;12.47;9.87;;;;;;;;;;5010649;28;20458;-83
2023/10/13 08:13:58;;;;;;;12.53;10.20;;;;;;;;;;5015070;28;20848;-80
2023/10/13 08:16:52;;;;;;;11.27;9.70;;;;;;;;;;5016152;28;20901;-80
2023/10/13 08:19:44;;;;;;;17.37;9.40;;;;;;;;;;5008636;28;20873;-81
2023/10/13 08:22:35;;;;;;;15.53;10.37;;;;;;;;;;5016328;28;20482;-81
2023/10/13 08:26:29;;;;;;;14.93;9.77;;;;;;;;;;5015440;28;20792;-81
2023/10/13 08:28:54;;;;;;;10.73;9.20;;;;;;;;;;5009975;28;20824;-80
2023/10/13 08:31:42;;;;;;;12.00;9.30;;;;;;;;;;5001306;28;20466;-81
2023/10/13 08:34:38;;;;;;;15.90;8.93;;;;;;;;;;5015167;28;20770;-81
2023/10/13 08:37:28;;;;;;;14.37;8.77;;;;;;;;;;5013410;28;21015;-81
2023/10/13 08:40:43;;;;;;;11.30;9.23;;;;;;;;;;5006619;28;20833;-80
2023/10/13 08:43:39;;;;;;;12.33;8.90;;;;;;;;;;5013986;28;20435;-81
2023/10/13 08:46:38;;;;;;;17.50;9.23;;;;;;;;;;4999683;28;20836;-80
2023/10/13 08:49:28;;;;;;;14.20;9.10;;;;;;;;;;5009117;28;20856;-80
2023/10/13 08:55:39;;;;;;;13.73;8.90;;;;;;;;;;4982580;28;20442;-80
2023/10/13 08:58:29;;;;;;;14.10;8.93;;;;;;;;;;5016448;28;20451;-80
2023/10/13 09:01:34;;;;;;;9.40;8.40;;;;;;;;;;5010434;28;20565;-80
2023/10/13 09:04:21;;;;;;;12.50;8.80;;;;;;;;;;5019800;28;20430;-80
2023/10/13 09:07:15;;;;;;;16.43;8.77;;;;;;;;;;5018145;28;20430;-80
2023/10/13 09:10:11;;;;;;;17.20;8.90;;;;;;;;;;5010617;28;20797;-81
2023/10/13 09:13:01;;;;;;;12.43;8.17;;;;;;;;;;5018190;28;20445;-80
2023/10/13 09:18:52;;;;;;;11.30;7.17;;;;;;;;;;5016497;28;20470;-80
2023/10/13 09:21:54;;;;;;;13.20;8.03;;;;;;;;;;5000757;28;20974;-81
2023/10/13 09:24:43;;;;;;;14.20;8.60;;;;;;;;;;5019237;28;20765;-80
2023/10/13 09:27:32;;;;;;;11.63;8.60;;;;;;;;;;5018310;28;20840;-80
2023/10/13 09:30:18;;;;;;;11.40;7.90;;;;;;;;;;5004549;28;20426;-80
2023/10/13 09:33:04;;;;;;;13.97;8.00;;;;;;;;;;4995449;28;20435;-80
2023/10/13 09:35:50;;;;;;;16.23;8.07;;;;;;;;;;5017906;28;20454;-80
2023/10/13 09:38:40;;;;;;;12.37;8.17;;;;;;;;;;5010228;28;20450;-81
2023/10/13 09:41:26;;;;;;;15.63;8.30;;;;;;;;;;5002393;28;20565;-79
2023/10/13 09:44:13;;;;;;;9.10;7.33;;;;;;;;;;4996828;28;20550;-80
2023/10/13 09:47:07;;;;;;;12.23;8.23;;;;;;;;;;5017187;28;20431;-80
2023/10/13 09:49:57;;;;;;;10.63;7.90;;;;;;;;;;4997372;28;20459;-80
2023/10/13 09:52:43;;;;;;;9.97;8.90;;;;;;;;;;5016399;28;20445;-81
2023/10/13 09:55:31;;;;;;;9.80;8.10;;;;;;;;;;5012348;28;20554;-80
2023/10/13 09:58:17;;;;;;;15.13;8.90;;;;;;;;;;5002190;28;20463;-82
2023/10/13 10:01:08;;;;;;;9.60;7.53;;;;;;;;;;5018724;28;21078;-80
2023/10/13 10:04:07;;;;;;;16.63;9.40;;;;;;;;;;5012891;28;20813;-80
2023/10/13 10:06:52;;;;;;;10.90;8.27;;;;;;;;;;5004065;28;20804;-80
2023/10/13 10:09:37;;;;;;;14.70;9.47;;;;;;;;;;5018233;28;20825;-81
2023/10/13 10:12:28;;;;;;;12.97;8.87;;;;;;;;;;5016151;28;20441;-80
2023/10/13 10:15:28;;;;;;;10.47;8.80;;;;;;;;;;5017617;28;20999;-80
2023/10/13 10:18:21;;;;;;;44.50;27.10;;;;;;;;;;5017115;28;20821;-79
2023/10/13 10:21:08;;;;;;;23.60;13.90;;;;;;;;;;5019170;28;20864;-79
2023/10/13 10:23:54;;;;;;;16.47;11.50;;;;;;;;;;5012806;28;20978;-78
2023/10/13 10:26:39;;;;;;;16.17;11.67;;;;;;;;;;5018335;28;20788;-80
2023/10/13 10:29:24;;;;;;;13.60;11.10;;;;;;;;;;5012274;28;20833;-79
2023/10/13 10:32:13;;;;;;;13.80;11.23;;;;;;;;;;5016834;28;20821;-79
2023/10/13 10:35:07;;;;;;;13.20;10.63;;;;;;;;;;5014606;28;20914;-80
2023/10/13 10:37:53;;;;;;;13.60;11.13;;;;;;;;;;5003708;28;20951;-81
2023/10/13 10:40:51;;;;;;;13.70;10.43;;;;;;;;;;5000505;28;20887;-80
2023/10/13 10:43:45;;;;;;;18.97;13.00;;;;;;;;;;5013550;28;20852;-81
2023/10/13 10:46:40;;;;;;;24.70;17.07;;;;;;;;;;5009070;28;20848;-81
2023/10/13 10:49:29;;;;;;;18.33;11.43;;;;;;;;;;5016455;28;20780;-80
2023/10/13 10:52:20;;;;;;;15.23;11.20;;;;;;;;;;5011531;28;20802;-80
2023/10/13 10:55:10;;;;;;;16.40;12.37;;;;;;;;;;5015461;28;20753;-79
2023/10/13 10:58:01;;;;;;;10.47;9.30;;;;;;;;;;5015347;28;20982;-80
2023/10/13 11:00:50;;;;;;;13.40;10.40;;;;;;;;;;5009925;28;20804;-81
2023/10/13 11:03:37;;;;;;;13.03;11.33;;;;;;;;;;5010068;28;20453;-80
2023/10/13 11:06:26;;;;;;;13.33;9.97;;;;;;;;;;5014069;28;20779;-80
2023/10/13 11:09:31;;;;;;;12.30;9.37;;;;;;;;;;5008939;28;20853;-79
2023/10/13 11:12:23;;;;;;;12.67;9.70;;;;;;;;;;5005287;28;20794;-79
2023/10/13 11:15:14;;;;;;;13.37;10.43;;;;;;;;;;5011589;28;21124;-79
2023/10/13 11:17:59;;;;;;;14.67;9.57;;;;;;;;;;5012288;28;20788;-80
2023/10/13 11:20:44;;;;;;;13.10;8.60;;;;;;;;;;5013501;28;20796;-78
2023/10/13 11:23:29;;;;;;;13.47;9.00;;;;;;;;;;5011308;28;20761;-81
2023/10/13 11:26:18;;;;;;;12.40;9.00;;;;;;;;;;5014911;28;20825;-81
2023/10/13 11:29:10;;;;;;;12.93;8.97;;;;;;;;;;5012137;28;20826;-80
2023/10/13 11:31:58;;;;;;;11.10;8.30;;;;;;;;;;5009657;28;20923;-80
2023/10/13 11:34:43;;;;;;;15.53;9.00;;;;;;;;;;5006218;28;20950;-80
2023/10/13 11:37:37;;;;;;;11.67;8.40;;;;;;;;;;5010374;28;20414;-79
2023/10/13 11:40:43;;;;;;;10.33;8.97;;;;;;;;;;5005776;28;20830;-80
2023/10/13 11:43:34;;;;;;;16.23;8.77;;;;;;;;;;5010415;28;20432;-79
2023/10/13 11:49:31;;;;;;;16.50;9.63;;;;;;;;;;4992695;28;20427;-79
2023/10/13 11:52:19;;;;;;;11.87;8.00;;;;;;;;;;4987470;28;20876;-79
2023/10/13 11:55:05;;;;;;;10.27;8.33;;;;;;;;;;5000347;28;20904;-79
2023/10/13 11:57:50;;;;;;;11.80;8.50;;;;;;;;;;5001517;28;20780;-79
2023/10/13 12:00:53;;;;;;;15.40;8.50;;;;;;;;;;4984892;28;20832;-80
2023/10/13 12:06:59;;;;;;;12.03;9.10;;;;;;;;;;4985713;28;20913;-79
2023/10/13 12:10:02;;;;;;;9.63;7.93;;;;;;;;;;4995557;28;20818;-79
2023/10/13 12:12:53;;;;;;;11.20;8.27;;;;;;;;;;4991177;28;20486;-79
2023/10/13 12:15:51;;;;;;;13.33;8.43;;;;;;;;;;4996637;28;20804;-79
2023/10/13 12:18:36;;;;;;;10.83;7.17;;;;;;;;;;4990370;28;20823;-80
2023/10/13 12:21:22;;;;;;;10.03;6.80;;;;;;;;;;4997043;28;20786;-80
2023/10/13 12:24:22;;;;;;;14.27;7.73;;;;;;;;;;4987951;28;20833;-79
2023/10/13 12:27:18;;;;;;;10.33;7.87;;;;;;;;;;4990833;28;20942;-79
2023/10/13 12:30:07;;;;;;;13.00;7.30;;;;;;;;;;4997497;28;22184;-80
2023/10/13 12:33:06;;;;;;;10.73;6.93;;;;;;;;;;4996133;28;20419;-79
2023/10/13 12:36:03;;;;;;;14.57;7.23;;;;;;;;;;4994894;28;20817;-79
2023/10/13 12:51:19;;;;;;;12.33;6.97;;;;;;;;;;4996738;28;20830;-80
2023/10/13 12:54:06;;;;;;;13.80;7.30;;;;;;;;;;4996323;28;20779;-80
2023/10/13 12:56:56;;;;;;;11.07;6.87;;;;;;;;;;4992384;28;20467;-80
2023/10/13 12:59:41;;;;;;;11.37;6.93;;;;;;;;;;4994452;28;20868;-79
2023/10/13 13:02:27;;;;;;;14.93;7.87;;;;;;;;;;5002111;28;20920;-80
2023/10/13 13:05:14;;;;;;;13.60;7.00;;;;;;;;;;4997434;28;20794;-79
2023/10/13 13:07:59;;;;;;;8.30;6.87;;;;;;;;;;4985099;28;20897;-80
2023/10/13 13:10:47;;;;;;;13.10;7.70;;;;;;;;;;4975202;28;20415;-80
2023/10/13 13:13:32;;;;;;;10.63;7.10;;;;;;;;;;4979416;28;20785;-80
2023/10/13 13:16:20;;;;;;;10.57;7.77;;;;;;;;;;4992090;28;20820;-79
2023/10/13 13:19:09;;;;;;;10.07;7.57;;;;;;;;;;4980741;28;20874;-80
2023/10/13 13:21:56;;;;;;;12.37;7.33;;;;;;;;;;4993229;28;20874;-79
2023/10/13 13:24:43;;;;;;;10.10;7.40;;;;;;;;;;4991205;28;20425;-79
2023/10/13 13:27:28;;;;;;;10.23;7.03;;;;;;;;;;4999952;28;20589;-80
2023/10/13 13:30:14;;;;;;;9.50;7.20;;;;;;;;;;4986172;28;20443;-78
2023/10/13 13:33:03;;;;;;;10.73;7.20;;;;;;;;;;4992591;28;20507;-78
2023/10/13 13:35:49;;;;;;;10.67;7.60;;;;;;;;;;5001290;28;20882;-79
2023/10/13 13:38:35;;;;;;;16.33;6.83;;;;;;;;;;4994797;28;20867;-79
2023/10/13 13:41:21;;;;;;;13.17;7.13;;;;;;;;;;4989115;28;20899;-79
2023/10/13 13:44:14;;;;;;;11.47;6.60;;;;;;;;;;4996652;28;20547;-79
2023/10/13 13:46:59;;;;;;;12.10;7.40;;;;;;;;;;5000420;28;20817;-79
2023/10/13 13:49:51;;;;;;;9.80;7.43;;;;;;;;;;5005436;28;20451;-79
2023/10/13 13:52:45;;;;;;;10.97;6.60;;;;;;;;;;4985452;28;20806;-78
2023/10/13 13:55:34;;;;;;;8.40;5.70;;;;;;;;;;4997812;28;20799;-79
2023/10/13 13:58:19;;;;;;;11.37;6.67;;;;;;;;;;5001194;28;20455;-78
2023/10/13 14:01:11;;;;;;;10.70;6.37;;;;;;;;;;4981820;28;20840;-78
2023/10/13 14:04:02;;;;;;;11.50;6.40;;;;;;;;;;4993879;28;20805;-78
2023/10/13 14:06:50;;;;;;;14.37;6.50;;;;;;;;;;5002916;28;20806;-78
2023/10/13 14:09:40;;;;;;;11.30;7.20;;;;;;;;;;4996334;28;20835;-79
2023/10/13 14:12:29;;;;;;;14.07;7.33;;;;;;;;;;4992478;28;20820;-78
2023/10/13 14:15:23;;;;;;;15.37;8.00;;;;;;;;;;4996175;28;20833;-78
2023/10/13 14:18:14;;;;;;;18.87;7.20;;;;;;;;;;4971743;28;20841;-78
2023/10/13 14:21:03;;;;;;;10.03;7.37;;;;;;;;;;5002548;28;20499;-78
2023/10/13 14:23:51;;;;;;;14.00;6.87;;;;;;;;;;5002526;28;20880;-79
2023/10/13 14:26:36;;;;;;;13.80;7.50;;;;;;;;;;4988178;28;20477;-78
2023/10/13 14:29:26;;;;;;;11.77;6.93;;;;;;;;;;5006110;28;20925;-78
2023/10/13 14:32:13;;;;;;;11.60;6.57;;;;;;;;;;5006018;28;20814;-79
2023/10/13 14:35:00;;;;;;;15.13;6.77;;;;;;;;;;4998767;28;20884;-78
2023/10/13 14:37:45;;;;;;;10.37;6.77;;;;;;;;;;4997989;28;20994;-78
2023/10/13 14:40:30;;;;;;;17.73;6.70;;;;;;;;;;5000423;28;20455;-78
2023/10/13 14:43:15;;;;;;;12.47;7.07;;;;;;;;;;4988061;28;20867;-77
2023/10/13 14:46:04;;;;;;;17.13;6.80;;;;;;;;;;4995548;28;20467;-76
2023/10/13 14:48:52;;;;;;;11.70;6.40;;;;;;;;;;4979918;28;20813;-76
2023/10/13 14:51:39;;;;;;;12.83;6.80;;;;;;;;;;4970834;28;20439;-79
2023/10/13 14:54:33;;;;;;;10.43;7.00;;;;;;;;;;4995513;28;20827;-75
2023/10/13 14:57:24;;;;;;;13.53;6.57;;;;;;;;;;4987527;28;20858;-77
2023/10/13 15:00:13;;;;;;;19.03;6.50;;;;;;;;;;4996295;28;20784;-77
2023/10/13 15:03:01;;;;;;;12.23;6.87;;;;;;;;;;4995026;28;20810;-77
2023/10/13 15:05:46;;;;;;;11.57;7.10;;;;;;;;;;4994108;28;20837;-78
2023/10/13 15:08:32;;;;;;;9.70;6.83;;;;;;;;;;4990065;28;20832;-77
2023/10/13 15:11:18;;;;;;;8.60;5.90;;;;;;;;;;5001531;28;20841;-77
2023/10/13 15:14:06;;;;;;;8.60;6.27;;;;;;;;;;4991605;28;20846;-78
2023/10/13 15:16:52;;;;;;;8.90;6.90;;;;;;;;;;4988282;28;20909;-77
2023/10/13 15:19:39;;;;;;;12.73;6.40;;;;;;;;;;4987953;28;20483;-77
2023/10/13 15:22:27;;;;;;;10.90;6.33;;;;;;;;;;4999742;28;21004;-78
2023/10/13 15:25:20;;;;;;;10.47;6.90;;;;;;;;;;4997485;28;20804;-78
2023/10/13 15:28:09;;;;;;;11.10;6.97;;;;;;;;;;4991334;28;20857;-78
2023/10/13 15:31:04;;;;;;;6.70;6.00;;;;;;;;;;4994522;28;20812;-78
2023/10/13 15:33:52;;;;;;;11.67;6.70;;;;;;;;;;4986161;28;20471;-78
2023/10/13 15:36:39;;;;;;;12.90;6.37;;;;;;;;;;4985749;28;20467;-78
2023/10/13 15:39:24;;;;;;;9.47;6.80;;;;;;;;;;4998457;28;20453;-78
2023/10/13 15:42:10;;;;;;;11.57;6.67;;;;;;;;;;4983831;28;20846;-78
2023/10/13 15:44:56;;;;;;;11.90;7.07;;;;;;;;;;4989801;28;20448;-78
2023/10/13 15:47:45;;;;;;;7.47;6.33;;;;;;;;;;4994370;28;20450;-78
2023/10/13 15:50:39;;;;;;;8.80;6.47;;;;;;;;;;5000493;28;20807;-79
2023/10/13 15:53:25;;;;;;;12.50;6.90;;;;;;;;;;4996659;28;20873;-78
2023/10/13 15:56:12;;;;;;;10.17;6.67;;;;;;;;;;4999776;28;20846;-78
2023/10/13 15:58:57;;;;;;;12.03;5.60;;;;;;;;;;4996137;28;20950;-77
2023/10/13 16:01:46;;;;;;;10.07;7.17;;;;;;;;;;4985990;28;20477;-79
2023/10/13 16:04:31;;;;;;;10.80;6.80;;;;;;;;;;4985361;28;20837;-80
2023/10/13 16:07:18;;;;;;;10.63;6.13;;;;;;;;;;4998570;28;20861;-79
2023/10/13 16:10:11;;;;;;;12.07;6.70;;;;;;;;;;4993747;28;20814;-80
2023/10/13 16:12:57;;;;;;;8.97;6.50;;;;;;;;;;4995603;28;20875;-80
2023/10/13 16:15:43;;;;;;;8.37;6.00;;;;;;;;;;4991988;28;21042;-77
2023/10/13 16:18:32;;;;;;;13.90;6.13;;;;;;;;;;4992484;28;20816;-78
2023/10/13 16:21:17;;;;;;;6.70;6.00;;;;;;;;;;4990694;28;20456;-77
2023/10/13 16:24:03;;;;;;;11.83;6.73;;;;;;;;;;4984886;28;20925;-77
2023/10/13 16:26:52;;;;;;;9.10;6.50;;;;;;;;;;4987085;28;20897;-77
2023/10/13 16:29:37;;;;;;;6.97;6.10;;;;;;;;;;4995657;28;20935;-77
2023/10/13 16:32:26;;;;;;;8.57;6.30;;;;;;;;;;4975292;28;20765;-78
2023/10/13 16:35:13;;;;;;;6.80;6.00;;;;;;;;;;4999414;28;20810;-78
2023/10/13 16:37:58;;;;;;;12.37;6.60;;;;;;;;;;5002481;28;20819;-78
2023/10/13 16:40:43;;;;;;;13.97;6.83;;;;;;;;;;4973978;28;20990;-77
2023/10/13 16:43:33;;;;;;;6.90;5.90;;;;;;;;;;4996490;28;20813;-78
2023/10/13 16:46:19;;;;;;;16.00;6.27;;;;;;;;;;4993295;28;20807;-77
2023/10/13 16:49:04;;;;;;;7.10;6.13;;;;;;;;;;4983395;28;20458;-77
2023/10/13 16:51:49;;;;;;;12.23;7.03;;;;;;;;;;4983642;28;20850;-78
2023/10/13 16:54:36;;;;;;;8.73;6.60;;;;;;;;;;4992702;28;20865;-77
2023/10/13 16:57:21;;;;;;;8.70;6.10;;;;;;;;;;4988746;28;20811;-78
2023/10/13 17:00:11;;;;;;;17.27;7.20;;;;;;;;;;4976480;28;20917;-78
2023/10/13 17:02:57;;;;;;;8.50;6.77;;;;;;;;;;4982135;28;20495;-77
2023/10/13 17:05:43;;;;;;;12.93;7.10;;;;;;;;;;4986699;28;20835;-78
2023/10/13 17:08:29;;;;;;;9.40;7.60;;;;;;;;;;4998089;28;20615;-78
2023/10/13 17:11:15;;;;;;;7.93;6.10;;;;;;;;;;4988828;28;20937;-78
2023/10/13 17:14:05;;;;;;;9.43;7.77;;;;;;;;;;4988931;28;20810;-77
2023/10/13 17:16:52;;;;;;;9.23;7.10;;;;;;;;;;4991998;28;20992;-77
2023/10/13 17:19:37;;;;;;;7.80;6.83;;;;;;;;;;4998997;28;20858;-77
2023/10/13 17:22:23;;;;;;;8.53;6.50;;;;;;;;;;4987726;28;20946;-77
2023/10/13 17:25:08;;;;;;;9.07;8.17;;;;;;;;;;4998626;28;20451;-77
2023/10/13 17:27:57;;;;;;;7.90;7.10;;;;;;;;;;4990829;28;20809;-77
2023/10/13 17:30:43;;;;;;;10.90;7.57;;;;;;;;;;4994237;28;20801;-78
2023/10/13 17:33:30;;;;;;;7.60;6.83;;;;;;;;;;4994901;28;20443;-78
2023/10/13 17:36:15;;;;;;;8.10;6.83;;;;;;;;;;4994585;28;20936;-78
2023/10/13 17:39:01;;;;;;;11.40;6.90;;;;;;;;;;4988655;28;20886;-78
2023/10/13 17:41:46;;;;;;;8.43;7.63;;;;;;;;;;4994003;28;20825;-78
2023/10/13 17:44:31;;;;;;;8.10;7.30;;;;;;;;;;4995720;28;20855;-78
2023/10/13 17:47:16;;;;;;;7.43;6.70;;;;;;;;;;4992735;28;21129;-78
2023/10/13 17:50:03;;;;;;;13.03;8.00;;;;;;;;;;4981843;28;20823;-79
2023/10/13 17:52:49;;;;;;;10.00;8.10;;;;;;;;;;4993093;28;20890;-78
2023/10/13 17:55:38;;;;;;;10.53;7.57;;;;;;;;;;4988187;28;20986;-79
2023/10/13 17:58:23;;;;;;;9.20;7.47;;;;;;;;;;4993394;28;20820;-78
2023/10/13 18:01:09;;;;;;;10.40;7.30;;;;;;;;;;4984258;28;21091;-77
2023/10/13 18:03:56;;;;;;;11.17;6.80;;;;;;;;;;4993825;28;21006;-77
2023/10/13 18:06:43;;;;;;;9.13;7.27;;;;;;;;;;4993739;28;20924;-78
2023/10/13 18:09:28;;;;;;;11.60;7.00;;;;;;;;;;5000210;28;20456;-78
2023/10/13 18:12:15;;;;;;;11.43;7.50;;;;;;;;;;4984465;28;20811;-78
2023/10/13 18:15:00;;;;;;;10.33;7.50;;;;;;;;;;4993584;28;20827;-78
2023/10/13 18:17:46;;;;;;;7.67;6.70;;;;;;;;;;4983494;28;20904;-78
2023/10/13 18:20:31;;;;;;;8.43;7.70;;;;;;;;;;4992654;28;20959;-78
2023/10/13 18:23:18;;;;;;;9.10;7.00;;;;;;;;;;4992788;28;20881;-78
2023/10/13 18:26:03;;;;;;;8.93;7.80;;;;;;;;;;4988425;28;20888;-78
2023/10/13 18:28:50;;;;;;;7.07;6.47;;;;;;;;;;4994245;28;20811;-78
2023/10/13 18:31:36;;;;;;;10.40;7.60;;;;;;;;;;4999293;28;20486;-78
2023/10/13 18:34:21;;;;;;;9.40;7.40;;;;;;;;;;4993654;28;20828;-78